Okoboji, IA (51355)

9:15 AM CST on December 19, 2014 (GMT -0600)
Milford Fire Station | Change Station
CLOSE
Current Station
Personal Weather Station
Location: Milford, IA
Elevation: 1443 ft
Nearby Weather Stations

Elev 1443 ft 43.33 °N, 95.15 °W | Updated 2 seconds ago

Overcast
Overcast
28.1 °F
Feels Like 28 °F
N
3.0
Wind Variable Wind from SSW
Gusts 9.0 mph

Today
High -- | Low -- °F
--% Chance of Precip.
Yesterday
High -- | Low -- °F
Precip. -- in
7:48 AM 4:46 PM
Waning Crescent, 7% visible
Pressure 30.25 in
Visibility 3.0 miles
Clouds Overcast 500 ft
Windchill 28 °F
Dew Point 27 °F
Humidity 97%
Rainfall 0.00 in
Snow Depth Not available.
UV 0 out of 12
Pollen .10 out of 12
Air Quality Not available.
Flu Activity Not available.
METAR KSPW 191453Z AUTO 18008KT 3SM BR OVC005 M01/M03 A3019 RMK AO2 SLP242 T10111028 53000 TSNO

More Conditions Fewer Conditions

Pressure 30.25 in
Visibility 3.0 miles
Clouds Overcast 500 ft
Windchill 28 °F
Dew Point 27 °F
Humidity 97%
Rainfall 0.00 in
Snow Depth Not available.
UV 0 out of 12
Pollen .10 out of 12
Air Quality Not available.
Flu Activity Not available.
METAR KSPW 191453Z AUTO 18008KT 3SM BR OVC005 M01/M03 A3019 RMK AO2 SLP242 T10111028 53000 TSNO

More Conditions Fewer Conditions

10-Day Weather Forecast

Almanac

Astronomy

Dec. 19, 2014 Rise Set
Actual Time
Civil Twilight
Nautical Twilight
Astronomical Twilight
Moon
Length of Visible Light
Length of Day
Tomorrow will be .
, % of the Moon is Illuminated

Today's Extremes

State Highs State Lows

Community

WunderPhotos

Upload Photos

1,778,996 photos uploaded!

WunderBlogs® & News

Nearby

Air Quality

  Air Quality AQ Index Pollutant
Not available.

Snow Depth

Station Depth Elevation

Earthquake Activity

City Distance Mag. Time & Date
Minimum magnitude displayed is 2.5.

Coastal Water Temperatures

Place Temperature

Nearby Weather Stations